createdAt,value
2019-04-22T00:00:04.727Z,47.70
2019-04-22T00:02:43.550Z,47.60
2019-04-22T00:05:18.886Z,47.60
2019-04-22T00:08:13.464Z,47.70
2019-04-22T00:10:48.699Z,47.90
2019-04-22T00:13:19.965Z,48.00
2019-04-22T00:15:41.789Z,48.20
2019-04-22T00:18:40.585Z,48.40
2019-04-22T00:20:58.395Z,48.50
2019-04-22T00:23:27.823Z,48.70
2019-04-22T00:26:02.674Z,48.70
2019-04-22T00:28:41.208Z,48.60
2019-04-22T00:31:21.320Z,48.90
2019-04-22T00:33:51.758Z,48.90
2019-04-22T00:36:28.612Z,48.90
2019-04-22T00:39:07.164Z,49.00
2019-04-22T00:41:38.665Z,48.60
2019-04-22T00:44:15.706Z,48.30
2019-04-22T00:46:50.946Z,48.20
2019-04-22T00:51:52.915Z,47.90
2019-04-22T00:54:21.470Z,48.10
2019-04-22T00:56:56.087Z,48.50
2019-04-22T00:59:25.108Z,48.60
2019-04-22T01:02:02.006Z,48.50
2019-04-22T01:04:39.293Z,48.60
2019-04-22T01:07:04.081Z,48.70
2019-04-22T01:09:40.097Z,48.50
2019-04-22T01:12:15.554Z,48.40
2019-04-22T01:14:49.066Z,48.40
2019-04-22T01:17:19.010Z,48.60
2019-04-22T01:19:58.598Z,48.80
2019-04-22T01:22:22.028Z,48.70
2019-04-22T01:24:59.898Z,48.70
2019-04-22T01:27:20.613Z,48.50
2019-04-22T01:29:54.135Z,48.30
2019-04-22T01:32:22.685Z,48.10
2019-04-22T01:35:02.386Z,48.10
2019-04-22T01:37:43.265Z,47.70
2019-04-22T01:43:00.397Z,47.90
2019-04-22T01:45:25.844Z,47.80
2019-04-22T01:48:00.605Z,47.80
2019-04-22T01:50:31.799Z,47.90
2019-04-22T01:53:08.485Z,48.00
2019-04-22T01:55:40.308Z,48.20
2019-04-22T01:58:09.463Z,47.80
2019-04-22T02:00:51.142Z,47.40
2019-04-22T02:03:19.049Z,47.40
2019-04-22T02:05:50.764Z,47.40
2019-04-22T02:08:45.480Z,47.70
2019-04-22T02:11:00.977Z,48.00
2019-04-22T02:13:36.695Z,48.40
2019-04-22T02:16:10.441Z,48.40
2019-04-22T02:18:44.946Z,48.50
2019-04-22T02:21:07.315Z,48.80
2019-04-22T02:26:35.531Z,49.20
2019-04-22T02:28:45.856Z,49.40
2019-04-22T02:31:35.823Z,49.40
2019-04-22T02:39:12.207Z,49.60
2019-04-22T02:44:14.021Z,49.60
2019-04-22T02:51:43.270Z,48.80
2019-04-22T02:57:03.293Z,48.40
2019-04-22T02:59:34.989Z,48.00
2019-04-22T03:02:21.471Z,47.90
2019-04-22T03:04:53.074Z,48.00
2019-04-22T03:07:22.995Z,48.00
2019-04-22T03:09:57.870Z,47.80
2019-04-22T03:12:28.437Z,47.80
2019-04-22T03:15:00.082Z,48.00
2019-04-22T03:17:51.740Z,48.00
2019-04-22T03:20:08.935Z,47.70
2019-04-22T03:27:38.810Z,48.90
2019-04-22T03:30:50.675Z,48.30
2019-04-22T03:37:56.329Z,48.30
2019-04-22T03:48:07.301Z,48.40
2019-04-22T03:50:37.432Z,48.30
2019-04-22T03:55:52.255Z,49.00
2019-04-22T03:58:23.822Z,49.10
2019-04-22T04:03:28.987Z,49.00
2019-04-22T04:06:00.439Z,49.10
2019-04-22T04:08:57.275Z,49.30
2019-04-22T04:11:06.988Z,49.30
2019-04-22T04:16:19.621Z,49.00
2019-04-22T04:19:02.627Z,48.90
2019-04-22T04:29:17.373Z,48.80
2019-04-22T04:31:59.114Z,48.70
2019-04-22T04:34:17.124Z,48.60
2019-04-22T04:36:42.153Z,48.40
2019-04-22T04:39:22.223Z,48.30
2019-04-22T04:47:01.061Z,48.70
2019-04-22T04:57:07.234Z,48.40
2019-04-22T05:00:10.848Z,48.30
2019-04-22T05:04:59.297Z,48.60
2019-04-22T05:09:55.126Z,48.90
2019-04-22T05:12:42.800Z,49.20
2019-04-22T05:15:01.003Z,49.10
2019-04-22T05:17:35.177Z,49.50
2019-04-22T05:20:05.331Z,49.80
2019-04-22T05:25:11.968Z,49.90
2019-04-22T05:27:42.626Z,49.90
2019-04-22T05:30:23.487Z,49.70
2019-04-22T05:35:20.778Z,49.60
2019-04-22T05:37:56.331Z,49.70
2019-04-22T05:42:56.461Z,49.80
2019-04-22T05:45:43.125Z,49.90
2019-04-22T05:48:01.291Z,49.70
2019-04-22T05:50:37.398Z,49.20
2019-04-22T05:53:07.098Z,49.80
2019-04-22T05:55:51.775Z,49.90
2019-04-22T05:58:18.821Z,50.00
2019-04-22T06:01:30.688Z,50.10
2019-04-22T06:03:39.169Z,48.90
2019-04-22T06:06:12.769Z,49.20
2019-04-22T06:08:45.454Z,49.70
2019-04-22T06:11:22.354Z,50.10
2019-04-22T06:13:46.529Z,49.00
2019-04-22T06:16:31.362Z,48.40
2019-04-22T06:19:03.101Z,48.20
2019-04-22T06:21:38.434Z,49.20
2019-04-22T06:24:11.267Z,49.40
2019-04-22T06:27:41.633Z,50.10
2019-04-22T06:29:14.993Z,49.70
2019-04-22T06:34:26.545Z,49.40
2019-04-22T06:37:05.629Z,50.00
2019-04-22T06:39:28.171Z,50.30
2019-04-22T06:42:00.993Z,50.10
2019-04-22T06:44:36.537Z,50.70
2019-04-22T06:47:12.467Z,50.70
2019-04-22T06:49:41.617Z,50.80
2019-04-22T06:52:28.051Z,50.90
2019-04-22T06:54:48.952Z,50.70
2019-04-22T06:57:19.429Z,50.90
2019-04-22T06:59:51.804Z,50.90
2019-04-22T07:02:32.043Z,51.20
2019-04-22T07:04:56.393Z,50.70
2019-04-22T07:07:34.517Z,50.80
2019-04-22T07:10:20.129Z,50.90
2019-04-22T07:12:35.862Z,51.10
2019-04-22T07:15:23.256Z,51.30
2019-04-22T07:17:50.486Z,51.20
2019-04-22T07:20:25.931Z,51.40
2019-04-22T07:22:51.370Z,50.70
2019-04-22T07:25:23.532Z,51.40
2019-04-22T07:27:58.212Z,51.20
2019-04-22T07:30:31.334Z,51.50
2019-04-22T07:35:48.936Z,51.50
2019-04-22T07:38:18.682Z,51.70
2019-04-22T07:40:43.965Z,51.80
2019-04-22T07:45:49.272Z,51.90
2019-04-22T07:53:29.313Z,52.10
2019-04-22T07:56:05.177Z,52.20
2019-04-22T07:58:35.984Z,52.20
2019-04-22T08:01:09.065Z,52.30
2019-04-22T08:03:51.268Z,52.50
2019-04-22T08:06:17.516Z,52.30
2019-04-22T08:08:55.575Z,52.30
2019-04-22T08:11:37.166Z,52.30
2019-04-22T08:13:54.779Z,52.50
2019-04-22T08:16:26.347Z,52.50
2019-04-22T08:19:04.160Z,52.60
2019-04-22T08:21:33.678Z,52.60
2019-04-22T08:24:13.087Z,52.60
2019-04-22T08:26:41.184Z,52.60
2019-04-22T08:29:21.665Z,52.80
2019-04-22T08:31:48.730Z,52.70
2019-04-22T08:34:21.253Z,53.00
2019-04-22T08:39:25.259Z,53.10
2019-04-22T08:41:57.391Z,52.80
2019-04-22T08:44:51.982Z,52.90
2019-04-22T08:47:29.134Z,53.10
2019-04-22T08:49:50.204Z,52.90
2019-04-22T08:52:17.576Z,53.00
2019-04-22T08:54:51.311Z,53.00
2019-04-22T08:57:26.020Z,53.00
2019-04-22T08:59:57.491Z,53.20
2019-04-22T09:05:00.108Z,53.50
2019-04-22T09:07:36.961Z,53.30
2019-04-22T09:10:10.255Z,53.40
2019-04-22T09:12:51.922Z,53.60
2019-04-22T09:15:18.515Z,53.50
2019-04-22T09:17:55.958Z,53.40
2019-04-22T09:20:20.668Z,53.50
2019-04-22T09:23:04.449Z,53.60
2019-04-22T09:25:29.948Z,53.90
2019-04-22T09:28:01.825Z,53.90
2019-04-22T09:30:44.838Z,53.90
2019-04-22T09:33:15.972Z,53.90
2019-04-22T09:35:48.287Z,53.90
2019-04-22T09:38:25.505Z,53.70
2019-04-22T09:41:05.358Z,54.10
2019-04-22T09:43:24.165Z,53.90
2019-04-22T09:51:03.694Z,53.70
2019-04-22T09:53:39.304Z,53.80
2019-04-22T09:56:10.171Z,53.90
2019-04-22T09:58:47.157Z,53.90
2019-04-22T10:01:22.837Z,54.10
2019-04-22T10:03:56.453Z,54.10
2019-04-22T10:06:30.771Z,54.20
2019-04-22T10:09:12.739Z,54.20
2019-04-22T10:11:35.125Z,54.20
2019-04-22T10:14:08.660Z,54.30
2019-04-22T10:16:37.493Z,54.30
2019-04-22T10:19:11.432Z,54.40
2019-04-22T10:21:54.153Z,54.30
2019-04-22T10:24:13.536Z,54.30
2019-04-22T10:27:02.033Z,54.00
2019-04-22T10:29:24.903Z,54.00
2019-04-22T10:31:57.210Z,54.10
2019-04-22T10:34:16.720Z,53.70
2019-04-22T10:36:37.868Z,53.60
2019-04-22T10:39:10.763Z,52.80
2019-04-22T10:41:42.439Z,52.40
2019-04-22T10:44:15.127Z,52.00
2019-04-22T10:46:48.500Z,51.50
2019-04-22T10:49:20.421Z,51.40
2019-04-22T10:51:53.022Z,51.30
2019-04-22T10:54:25.803Z,51.80
2019-04-22T10:56:59.046Z,52.30
2019-04-22T10:59:32.200Z,52.30
2019-04-22T11:02:03.889Z,53.30
2019-04-22T11:04:36.374Z,53.20
2019-04-22T11:07:11.078Z,53.20
2019-04-22T11:09:52.091Z,54.20
2019-04-22T11:12:19.215Z,54.00
2019-04-22T11:14:49.667Z,53.60
2019-04-22T11:17:21.760Z,53.70
2019-04-22T11:19:53.406Z,53.70
2019-04-22T11:22:31.264Z,53.70
2019-04-22T11:24:59.910Z,53.90
2019-04-22T11:27:31.012Z,54.30
2019-04-22T11:30:01.912Z,54.10
2019-04-22T11:32:33.338Z,54.30
2019-04-22T11:35:05.944Z,54.00
2019-04-22T11:37:38.751Z,53.90
2019-04-22T11:40:19.236Z,54.00
2019-04-22T11:42:43.941Z,53.90
2019-04-22T11:45:15.671Z,53.60
2019-04-22T11:47:47.691Z,54.60
2019-04-22T11:50:19.956Z,54.00
2019-04-22T11:52:55.225Z,53.90
2019-04-22T11:55:27.126Z,53.70
2019-04-22T11:57:58.996Z,54.00
2019-04-22T12:00:34.971Z,54.50
2019-04-22T12:03:07.399Z,54.20
2019-04-22T12:05:39.783Z,54.40
2019-04-22T12:08:11.350Z,54.10
2019-04-22T12:10:50.614Z,53.80
2019-04-22T12:13:17.852Z,53.60
2019-04-22T12:15:51.056Z,53.00
2019-04-22T12:18:22.923Z,53.60
2019-04-22T12:20:55.104Z,53.20
2019-04-22T12:23:27.347Z,53.40
2019-04-22T12:26:04.283Z,53.50
2019-04-22T12:28:32.950Z,53.50
2019-04-22T12:31:05.634Z,53.40
2019-04-22T12:33:37.384Z,53.20
2019-04-22T12:36:11.017Z,53.40
2019-04-22T12:38:42.271Z,53.20
2019-04-22T12:41:14.446Z,52.90
2019-04-22T12:43:47.389Z,52.60
2019-04-22T12:46:20.506Z,52.70
2019-04-22T12:48:52.167Z,52.40
2019-04-22T12:51:24.877Z,52.60
2019-04-22T12:53:57.234Z,52.10
2019-04-22T12:56:29.813Z,52.60
2019-04-22T12:59:01.435Z,52.90
2019-04-22T13:01:33.247Z,52.50
2019-04-22T13:04:07.797Z,52.90
2019-04-22T13:06:37.554Z,53.60
2019-04-22T13:09:10.512Z,53.00
2019-04-22T13:11:42.693Z,52.60
2019-04-22T13:14:15.014Z,52.60
2019-04-22T13:16:47.279Z,51.40
2019-04-22T13:19:20.606Z,51.10
2019-04-22T13:21:51.526Z,51.60
2019-04-22T13:24:23.781Z,51.50
2019-04-22T13:26:57.063Z,51.80
2019-04-22T13:29:28.635Z,51.60
2019-04-22T13:32:00.566Z,51.40
2019-04-22T13:34:39.670Z,51.60
2019-04-22T13:37:05.148Z,51.60
2019-04-22T13:39:36.819Z,51.50
2019-04-22T13:42:12.514Z,51.20
2019-04-22T13:44:41.829Z,51.80
2019-04-22T13:47:32.574Z,51.40
2019-04-22T13:50:27.978Z,52.30
2019-04-22T13:55:25.844Z,50.90
2019-04-22T13:57:42.582Z,50.40
2019-04-22T14:00:00.717Z,48.90
2019-04-22T14:03:06.902Z,47.90
2019-04-22T14:05:38.600Z,47.50
2019-04-22T14:08:12.662Z,48.80
2019-04-22T14:10:44.731Z,49.60
2019-04-22T14:13:16.356Z,50.10
2019-04-22T14:15:48.684Z,51.20
2019-04-22T14:18:21.120Z,51.20
2019-04-22T14:20:54.526Z,51.30
2019-04-22T14:23:26.798Z,50.50
2019-04-22T14:25:59.170Z,51.50
2019-04-22T14:28:31.321Z,51.20
2019-04-22T14:31:04.392Z,51.50
2019-04-22T14:33:36.277Z,51.90
2019-04-22T14:36:07.464Z,51.30
2019-04-22T14:38:39.862Z,51.20
2019-04-22T14:41:30.642Z,51.80
2019-04-22T14:45:05.379Z,51.20
2019-04-22T14:46:39.128Z,52.30
2019-04-22T14:49:22.360Z,51.90
2019-04-22T14:51:48.866Z,52.20
2019-04-22T14:54:13.898Z,51.90
2019-04-22T14:56:32.090Z,51.70
2019-04-22T14:59:05.116Z,52.60
2019-04-22T15:01:41.025Z,52.00
2019-04-22T15:04:10.977Z,51.50
2019-04-22T15:06:45.166Z,51.40
2019-04-22T15:09:16.224Z,51.40
2019-04-22T15:11:58.490Z,51.20
2019-04-22T15:14:21.487Z,51.10
2019-04-22T15:17:06.909Z,50.90
2019-04-22T15:19:47.647Z,52.10
2019-04-22T15:22:19.000Z,51.40
2019-04-22T15:24:52.315Z,50.70
2019-04-22T15:27:25.252Z,50.60
2019-04-22T15:29:59.163Z,50.40
2019-04-22T15:32:31.667Z,50.50
2019-04-22T15:35:03.024Z,50.30
2019-04-22T15:37:35.061Z,49.50
2019-04-22T15:40:06.838Z,49.40
2019-04-22T15:42:41.251Z,49.00
2019-04-22T15:45:12.605Z,49.30
2019-04-22T15:47:44.202Z,49.50
2019-04-22T15:50:16.863Z,49.80
2019-04-22T15:52:51.951Z,50.10
2019-04-22T15:55:22.462Z,50.00
2019-04-22T15:57:54.416Z,49.60
2019-04-22T16:00:38.265Z,49.70
2019-04-22T16:02:59.676Z,50.40
2019-04-22T16:05:32.124Z,50.10
2019-04-22T16:08:04.139Z,49.70
2019-04-22T16:10:35.787Z,49.90
2019-04-22T16:13:13.215Z,50.60
2019-04-22T16:15:38.827Z,50.70
2019-04-22T16:18:14.626Z,50.60
2019-04-22T16:20:46.188Z,50.70
2019-04-22T16:23:40.426Z,50.40
2019-04-22T16:26:18.092Z,50.60
2019-04-22T16:28:52.361Z,50.70
2019-04-22T16:31:22.539Z,50.40
2019-04-22T16:33:54.371Z,50.00
2019-04-22T16:36:26.944Z,50.10
2019-04-22T16:38:58.548Z,50.00
2019-04-22T16:41:30.646Z,50.40
2019-04-22T16:44:02.748Z,50.30
2019-04-22T16:46:34.349Z,50.20
2019-04-22T16:49:07.545Z,50.00
2019-04-22T16:51:40.331Z,50.20
2019-04-22T16:54:13.770Z,51.40
2019-04-22T16:56:45.766Z,51.70
2019-04-22T16:59:18.887Z,50.70
2019-04-22T17:02:02.042Z,50.70
2019-04-22T17:04:50.710Z,51.30
2019-04-22T17:07:22.757Z,51.50
2019-04-22T17:09:52.942Z,51.40
2019-04-22T17:12:36.864Z,51.40
2019-04-22T17:15:02.686Z,51.10
2019-04-22T17:17:32.700Z,51.00
2019-04-22T17:20:05.095Z,51.20
2019-04-22T17:22:37.663Z,51.40
2019-04-22T17:25:09.740Z,51.00
2019-04-22T17:27:41.433Z,51.00
2019-04-22T17:30:12.716Z,50.60
2019-04-22T17:32:46.788Z,51.00
2019-04-22T17:35:17.838Z,51.10
2019-04-22T17:38:00.234Z,51.00
2019-04-22T17:40:38.733Z,50.80
2019-04-22T17:43:29.861Z,50.80
2019-04-22T17:46:04.461Z,51.10
2019-04-22T17:49:06.863Z,50.70
2019-04-22T17:51:39.644Z,51.20
2019-04-22T17:54:12.904Z,50.60
2019-04-22T17:56:47.173Z,50.90
2019-04-22T17:59:23.070Z,50.60
2019-04-22T18:01:49.178Z,51.40
2019-04-22T18:04:04.839Z,51.30
2019-04-22T18:07:18.999Z,50.90
2019-04-22T18:09:50.293Z,50.90
2019-04-22T18:12:16.298Z,50.70
2019-04-22T18:17:11.508Z,51.50
2019-04-22T18:19:44.179Z,51.10
2019-04-22T18:22:07.599Z,51.00
2019-04-22T18:24:47.419Z,51.50
2019-04-22T18:27:37.067Z,50.90
2019-04-22T18:29:51.503Z,51.30
2019-04-22T18:32:20.510Z,50.70
2019-04-22T18:34:52.962Z,49.60
2019-04-22T18:37:31.426Z,48.70
2019-04-22T18:40:10.236Z,47.60
2019-04-22T18:42:45.835Z,46.30
2019-04-22T18:45:29.622Z,45.70
2019-04-22T18:47:44.296Z,44.80
2019-04-22T18:50:30.762Z,44.30
2019-04-22T18:53:17.151Z,43.50
2019-04-22T18:55:48.983Z,43.20
2019-04-22T18:58:22.320Z,42.90
2019-04-22T19:00:41.892Z,42.50
2019-04-22T19:03:18.206Z,42.90
2019-04-22T19:06:27.585Z,41.90
2019-04-22T19:08:43.425Z,41.60
2019-04-22T19:11:11.040Z,41.10
2019-04-22T19:16:31.003Z,40.50
2019-04-22T19:19:10.162Z,40.20
2019-04-22T19:21:25.707Z,40.70
2019-04-22T19:24:01.506Z,40.20
2019-04-22T19:26:46.032Z,40.30
2019-04-22T19:29:08.881Z,40.20
2019-04-22T19:31:43.631Z,40.40
2019-04-22T19:34:17.335Z,40.50
2019-04-22T19:36:51.236Z,40.50
2019-04-22T19:39:18.190Z,40.20
2019-04-22T19:42:08.160Z,40.40
2019-04-22T19:44:36.248Z,40.10
2019-04-22T19:47:19.637Z,39.90
2019-04-22T19:49:48.088Z,40.50
2019-04-22T19:52:22.784Z,39.70
2019-04-22T19:54:46.732Z,39.80
2019-04-22T19:57:11.747Z,39.80
2019-04-22T19:59:51.107Z,39.60
2019-04-22T20:03:03.272Z,39.40
2019-04-22T20:05:52.995Z,40.00
2019-04-22T20:08:25.151Z,39.30
2019-04-22T20:11:03.646Z,39.10
2019-04-22T20:13:36.774Z,38.90
2019-04-22T20:15:56.079Z,39.00
2019-04-22T20:18:47.707Z,39.50
2019-04-22T20:21:19.010Z,40.80
2019-04-22T20:23:39.545Z,41.00
2019-04-22T20:26:12.539Z,41.60
2019-04-22T20:28:52.506Z,40.60
2019-04-22T20:31:25.246Z,40.50
2019-04-22T20:34:03.518Z,40.90
2019-04-22T20:36:53.566Z,42.60
2019-04-22T20:39:02.103Z,44.30
2019-04-22T20:41:36.641Z,44.50
2019-04-22T20:44:16.363Z,45.30
2019-04-22T20:46:44.915Z,45.60
2019-04-22T20:49:27.745Z,45.90
2019-04-22T20:52:02.923Z,46.30
2019-04-22T20:54:23.200Z,46.20
2019-04-22T20:56:55.013Z,46.50
2019-04-22T20:59:33.397Z,46.40
2019-04-22T21:02:01.932Z,46.80
2019-04-22T21:04:33.538Z,46.90
2019-04-22T21:07:09.043Z,47.00
2019-04-22T21:09:52.330Z,47.20
2019-04-22T21:12:17.735Z,47.40
2019-04-22T21:15:00.240Z,47.40
2019-04-22T21:17:33.737Z,47.70
2019-04-22T21:20:10.069Z,47.60
2019-04-22T21:22:41.756Z,47.70
2019-04-22T21:25:06.095Z,47.50
2019-04-22T21:27:45.527Z,47.60
2019-04-22T21:30:14.444Z,47.90
2019-04-22T21:32:47.876Z,48.00
2019-04-22T21:35:35.209Z,48.30
2019-04-22T21:38:01.888Z,48.30
2019-04-22T21:40:27.479Z,48.50
2019-04-22T21:43:07.241Z,48.60
2019-04-22T21:45:28.053Z,48.60
2019-04-22T21:48:20.587Z,48.80
2019-04-22T21:53:25.524Z,48.90
2019-04-22T21:56:00.077Z,49.00
2019-04-22T21:58:38.682Z,49.20
2019-04-22T22:01:35.495Z,49.20
2019-04-22T22:04:05.294Z,49.40
2019-04-22T22:06:33.289Z,49.50
2019-04-22T22:09:07.228Z,49.70
2019-04-22T22:11:38.657Z,49.70
2019-04-22T22:14:11.632Z,49.70
2019-04-22T22:16:43.548Z,49.70
2019-04-22T22:19:25.479Z,49.80
2019-04-22T22:22:03.608Z,49.80
2019-04-22T22:24:35.909Z,50.20
2019-04-22T22:27:03.378Z,49.00
2019-04-22T22:29:49.331Z,47.70
2019-04-22T22:32:13.034Z,46.80
2019-04-22T22:34:43.606Z,46.40
2019-04-22T22:37:06.326Z,46.70
2019-04-22T22:39:41.936Z,46.90
2019-04-22T22:41:59.538Z,47.20
2019-04-22T22:44:35.880Z,47.60
2019-04-22T22:47:18.230Z,48.10
2019-04-22T22:49:59.512Z,48.50
2019-04-22T22:52:50.318Z,49.00
2019-04-22T22:55:08.199Z,48.90
2019-04-22T22:57:38.532Z,49.30
2019-04-22T23:00:11.811Z,49.10
2019-04-22T23:03:00.755Z,49.70
2019-04-22T23:05:29.030Z,50.00
2019-04-22T23:07:58.772Z,50.30
2019-04-22T23:10:26.750Z,50.30
2019-04-22T23:13:11.522Z,50.50
2019-04-22T23:15:27.546Z,50.70
2019-04-22T23:17:50.024Z,50.80
2019-04-22T23:20:28.876Z,50.90
2019-04-22T23:23:23.909Z,51.00
2019-04-22T23:25:55.058Z,51.00
2019-04-22T23:28:45.971Z,51.70
2019-04-22T23:31:21.050Z,51.10
2019-04-22T23:34:07.852Z,51.40
2019-04-22T23:36:54.197Z,51.60
2019-04-22T23:39:33.852Z,51.70
2019-04-22T23:42:06.181Z,51.80
2019-04-22T23:44:39.618Z,51.80
2019-04-22T23:47:04.888Z,52.10
2019-04-22T23:49:37.465Z,52.20
2019-04-22T23:52:21.113Z,52.20
2019-04-22T23:55:02.795Z,52.30
2019-04-22T23:57:33.198Z,52.30
